Time;durP1;ratioP1;P1;durP2;ratioP2;P2;SDS_P1;SDS_P2;PMS_P1;PMS_P2;Temp;Humidity;BMP_temperature;BMP_pressure;BME280_temperature;BME280_humidity;BME280_pressure;Samples;Min_cycle;Max_cycle;Signal;HPM_P1;HPM_P2
2023/01/31 00:00:53;;;;;;;17.23;5.57;;;;;;;;;;5018206;28;20117;-73
2023/01/31 00:03:18;;;;;;;14.70;5.43;;;;;;;;;;5032646;28;20056;-73
2023/01/31 00:05:43;;;;;;;22.63;7.97;;;;;;;;;;5029959;28;20444;-74
2023/01/31 00:08:09;;;;;;;18.17;7.00;;;;;;;;;;5027144;28;20577;-73
2023/01/31 00:10:34;;;;;;;26.17;7.70;;;;;;;;;;5032123;28;20042;-73
2023/01/31 00:13:00;;;;;;;19.33;7.45;;;;;;;;;;5031712;28;20091;-73
2023/01/31 00:15:25;;;;;;;19.85;6.88;;;;;;;;;;5024453;28;20100;-73
2023/01/31 00:17:51;;;;;;;16.55;6.60;;;;;;;;;;5021786;28;20053;-73
2023/01/31 00:20:17;;;;;;;25.17;7.40;;;;;;;;;;5023369;28;20100;-74
2023/01/31 00:22:43;;;;;;;20.25;6.68;;;;;;;;;;5024050;28;20061;-73
2023/01/31 00:25:08;;;;;;;20.00;6.07;;;;;;;;;;5023158;28;20850;-74
2023/01/31 00:27:34;;;;;;;24.73;7.53;;;;;;;;;;5019222;28;20083;-73
2023/01/31 00:29:59;;;;;;;21.30;7.07;;;;;;;;;;5017712;28;20466;-73
2023/01/31 00:32:25;;;;;;;19.75;7.00;;;;;;;;;;5028300;28;20482;-75
2023/01/31 00:34:54;;;;;;;22.40;6.15;;;;;;;;;;5027205;28;20029;-74
2023/01/31 00:37:20;;;;;;;25.38;5.68;;;;;;;;;;5030546;28;20500;-73
2023/01/31 00:39:46;;;;;;;21.23;5.18;;;;;;;;;;5019099;28;20045;-73
2023/01/31 00:42:11;;;;;;;12.27;3.42;;;;;;;;;;5028276;28;20040;-74
2023/01/31 00:44:36;;;;;;;11.95;2.28;;;;;;;;;;5016344;28;20125;-73
2023/01/31 00:47:02;;;;;;;11.52;2.22;;;;;;;;;;5019417;28;20037;-74
2023/01/31 00:49:27;;;;;;;16.73;2.40;;;;;;;;;;5019103;28;20482;-73
2023/01/31 00:51:53;;;;;;;16.15;2.63;;;;;;;;;;5016194;28;20050;-73
2023/01/31 00:54:18;;;;;;;16.08;2.40;;;;;;;;;;5020551;28;20030;-74
2023/01/31 00:56:43;;;;;;;10.65;2.60;;;;;;;;;;5033431;28;20529;-74
2023/01/31 00:59:09;;;;;;;13.32;2.42;;;;;;;;;;5016350;28;20042;-75
2023/01/31 01:01:35;;;;;;;20.63;3.30;;;;;;;;;;5029340;28;20038;-73
2023/01/31 01:04:01;;;;;;;16.77;3.80;;;;;;;;;;5014904;28;20037;-80
2023/01/31 01:06:27;;;;;;;13.30;2.70;;;;;;;;;;5020592;28;20153;-74
2023/01/31 01:08:53;;;;;;;14.50;3.20;;;;;;;;;;5013491;28;20061;-74
2023/01/31 01:11:25;;;;;;;17.70;3.10;;;;;;;;;;5025602;28;20436;-74
2023/01/31 01:13:50;;;;;;;10.45;2.42;;;;;;;;;;5037827;28;20034;-77
2023/01/31 01:16:19;;;;;;;8.73;2.78;;;;;;;;;;5023302;28;20041;-74
2023/01/31 01:18:46;;;;;;;11.77;3.08;;;;;;;;;;5022543;28;20065;-73
2023/01/31 01:21:17;;;;;;;12.73;2.65;;;;;;;;;;5014944;28;20038;-72
2023/01/31 01:23:43;;;;;;;12.68;2.58;;;;;;;;;;5018227;28;20048;-73
2023/01/31 01:26:17;;;;;;;13.57;2.25;;;;;;;;;;5021363;28;20029;-73
2023/01/31 01:28:43;;;;;;;7.68;2.58;;;;;;;;;;5019831;28;20133;-73
2023/01/31 01:31:12;;;;;;;11.35;2.38;;;;;;;;;;5017896;28;20032;-73
2023/01/31 01:33:38;;;;;;;10.82;2.42;;;;;;;;;;5027413;28;20485;-73
2023/01/31 01:36:06;;;;;;;11.27;2.58;;;;;;;;;;5027989;28;20037;-73
2023/01/31 01:38:36;;;;;;;8.02;1.58;;;;;;;;;;5020186;28;20116;-73
2023/01/31 01:41:01;;;;;;;11.48;2.58;;;;;;;;;;5019201;28;20042;-73
2023/01/31 01:43:45;;;;;;;5.20;1.40;;;;;;;;;;5023781;28;20037;-74
2023/01/31 01:46:41;;;;;;;13.85;1.83;;;;;;;;;;5017525;28;20034;-73
2023/01/31 01:49:32;;;;;;;11.02;2.40;;;;;;;;;;5021946;28;20036;-75
2023/01/31 01:51:59;;;;;;;7.03;1.70;;;;;;;;;;5001816;28;20069;-73
2023/01/31 01:54:34;;;;;;;11.70;1.88;;;;;;;;;;5027509;28;20083;-73
2023/01/31 01:57:01;;;;;;;11.40;1.98;;;;;;;;;;5020462;28;20461;-73
2023/01/31 01:59:36;;;;;;;14.13;2.20;;;;;;;;;;5029666;28;20034;-73
2023/01/31 02:02:02;;;;;;;10.40;1.80;;;;;;;;;;5005390;28;20401;-73
2023/01/31 02:04:31;;;;;;;9.25;1.63;;;;;;;;;;5017644;28;20470;-73
2023/01/31 02:06:59;;;;;;;10.18;1.58;;;;;;;;;;5015153;28;20042;-73
2023/01/31 02:09:36;;;;;;;11.73;1.65;;;;;;;;;;5020164;28;20402;-73
2023/01/31 02:12:02;;;;;;;11.10;1.67;;;;;;;;;;5024428;28;20056;-73
2023/01/31 02:14:28;;;;;;;8.25;1.63;;;;;;;;;;5024441;28;20046;-73
2023/01/31 02:16:53;;;;;;;6.25;1.77;;;;;;;;;;5017031;28;20045;-73
2023/01/31 02:19:33;;;;;;;14.02;2.03;;;;;;;;;;5017493;28;20500;-73
2023/01/31 02:22:20;;;;;;;10.48;1.80;;;;;;;;;;5031111;28;20071;-73
2023/01/31 02:24:51;;;;;;;8.90;1.77;;;;;;;;;;5016788;28;20049;-74
2023/01/31 02:27:38;;;;;;;9.23;1.48;;;;;;;;;;5023622;28;20121;-73
2023/01/31 02:30:06;;;;;;;7.10;1.88;;;;;;;;;;5023691;28;20040;-73
2023/01/31 02:32:31;;;;;;;6.10;1.23;;;;;;;;;;5009739;28;20088;-73
2023/01/31 02:35:11;;;;;;;11.73;1.80;;;;;;;;;;5017007;28;20033;-73
2023/01/31 02:38:07;;;;;;;9.05;2.13;;;;;;;;;;5018325;28;20117;-73
2023/01/31 02:40:51;;;;;;;11.40;2.13;;;;;;;;;;5014721;28;20379;-74
2023/01/31 02:43:26;;;;;;;10.75;2.00;;;;;;;;;;5023636;28;20477;-73
2023/01/31 02:46:06;;;;;;;18.98;2.25;;;;;;;;;;5024482;28;20069;-73
2023/01/31 02:48:51;;;;;;;8.48;1.30;;;;;;;;;;5029917;28;20041;-74
2023/01/31 02:51:27;;;;;;;19.85;2.22;;;;;;;;;;5027668;28;20523;-73
2023/01/31 02:54:08;;;;;;;12.43;1.70;;;;;;;;;;5002482;28;20030;-73
2023/01/31 02:56:36;;;;;;;15.93;2.10;;;;;;;;;;5017331;28;20046;-73
2023/01/31 02:59:04;;;;;;;17.77;2.60;;;;;;;;;;5034049;28;20117;-73
2023/01/31 03:01:54;;;;;;;12.70;2.30;;;;;;;;;;5023949;28;20053;-73
2023/01/31 03:04:19;;;;;;;10.85;2.03;;;;;;;;;;5017531;28;20119;-73
2023/01/31 03:07:02;;;;;;;12.65;2.00;;;;;;;;;;5026166;28;20096;-74
2023/01/31 03:09:35;;;;;;;11.15;1.70;;;;;;;;;;5021111;28;20042;-74
2023/01/31 03:12:38;;;;;;;10.32;2.25;;;;;;;;;;5033907;28;20044;-74
2023/01/31 03:15:12;;;;;;;11.10;2.33;;;;;;;;;;5014156;28;20107;-74
2023/01/31 03:17:43;;;;;;;;;;;;;;;;;;5028806;28;20124;-74
2023/01/31 03:20:19;;;;;;;13.00;2.42;;;;;;;;;;5030653;28;19913;-75
2023/01/31 03:22:48;;;;;;;11.55;3.00;;;;;;;;;;5030210;28;20041;-75
2023/01/31 03:25:16;;;;;;;13.05;3.60;;;;;;;;;;5029479;28;20065;-75
2023/01/31 03:27:45;;;;;;;12.65;3.55;;;;;;;;;;5032666;28;20045;-74
2023/01/31 03:30:18;;;;;;;20.95;3.40;;;;;;;;;;5030291;28;20592;-74
2023/01/31 03:32:51;;;;;;;13.30;3.97;;;;;;;;;;5028638;28;20030;-74
2023/01/31 03:35:19;;;;;;;8.95;2.22;;;;;;;;;;5006052;28;20551;-73
2023/01/31 03:37:54;;;;;;;16.17;3.28;;;;;;;;;;5031249;28;20052;-73
2023/01/31 03:40:25;;;;;;;12.95;4.00;;;;;;;;;;5026135;28;20036;-73
2023/01/31 03:42:56;;;;;;;16.55;4.32;;;;;;;;;;5031317;28;20115;-75
2023/01/31 03:45:35;;;;;;;16.23;4.20;;;;;;;;;;5017190;28;20033;-73
2023/01/31 03:48:02;;;;;;;9.43;3.88;;;;;;;;;;5021599;28;20041;-73
2023/01/31 03:50:32;;;;;;;11.75;4.22;;;;;;;;;;5023491;28;20030;-73
2023/01/31 03:53:02;;;;;;;14.07;4.15;;;;;;;;;;5021307;28;20080;-74
2023/01/31 03:55:34;;;;;;;20.85;4.65;;;;;;;;;;5016762;28;20462;-73
2023/01/31 03:58:01;;;;;;;17.08;4.03;;;;;;;;;;5019360;28;20041;-74
2023/01/31 04:00:27;;;;;;;13.50;3.90;;;;;;;;;;5015638;28;20125;-73
2023/01/31 04:02:59;;;;;;;12.10;3.33;;;;;;;;;;5029456;28;20042;-73
2023/01/31 04:05:29;;;;;;;11.32;3.90;;;;;;;;;;5021335;28;20045;-73
2023/01/31 04:07:55;;;;;;;14.48;3.33;;;;;;;;;;5037677;28;20120;-72
2023/01/31 04:10:21;;;;;;;12.80;3.42;;;;;;;;;;5017150;28;20046;-74
2023/01/31 04:12:47;;;;;;;20.15;4.20;;;;;;;;;;5017502;28;20033;-75
2023/01/31 04:15:13;;;;;;;15.27;3.95;;;;;;;;;;5018479;28;20117;-75
2023/01/31 04:17:38;;;;;;;14.45;2.92;;;;;;;;;;5018741;28;20098;-74
2023/01/31 04:20:05;;;;;;;11.57;3.42;;;;;;;;;;5022395;28;20034;-74
2023/01/31 04:22:30;;;;;;;19.40;3.30;;;;;;;;;;5035165;28;20041;-73
2023/01/31 04:24:56;;;;;;;14.10;3.80;;;;;;;;;;5019030;28;20049;-74
2023/01/31 04:27:21;;;;;;;20.48;3.25;;;;;;;;;;5020635;28;20034;-73
2023/01/31 04:29:46;;;;;;;16.23;3.38;;;;;;;;;;5021762;28;20041;-76
2023/01/31 04:32:12;;;;;;;19.05;3.70;;;;;;;;;;5017454;28;20038;-74
2023/01/31 04:34:37;;;;;;;13.20;3.45;;;;;;;;;;5030638;28;20045;-73
2023/01/31 04:37:03;;;;;;;15.15;3.33;;;;;;;;;;5016956;28;20389;-73
2023/01/31 04:39:28;;;;;;;13.32;3.03;;;;;;;;;;5021426;28;20055;-75
2023/01/31 04:41:53;;;;;;;13.55;3.42;;;;;;;;;;5024894;28;20039;-73
2023/01/31 04:44:19;;;;;;;15.32;3.28;;;;;;;;;;5027018;28;20033;-73
2023/01/31 04:46:47;;;;;;;14.07;3.97;;;;;;;;;;5028971;28;20539;-73
2023/01/31 04:49:14;;;;;;;15.05;3.45;;;;;;;;;;5022647;28;20033;-73
2023/01/31 04:51:39;;;;;;;15.52;4.10;;;;;;;;;;5019816;28;20133;-73
2023/01/31 04:54:05;;;;;;;11.27;3.75;;;;;;;;;;5020070;28;20068;-74
2023/01/31 04:56:33;;;;;;;15.10;3.67;;;;;;;;;;5017928;28;20038;-74
2023/01/31 04:58:59;;;;;;;14.50;3.58;;;;;;;;;;5028535;28;20105;-73
2023/01/31 05:01:25;;;;;;;13.57;3.85;;;;;;;;;;5024209;28;20121;-73
2023/01/31 05:03:50;;;;;;;9.43;2.70;;;;;;;;;;5016245;28;20393;-74
2023/01/31 05:06:16;;;;;;;13.60;3.13;;;;;;;;;;5023833;28;20041;-72
2023/01/31 05:08:41;;;;;;;17.05;3.63;;;;;;;;;;5026567;28;20042;-74
2023/01/31 05:11:07;;;;;;;17.48;3.75;;;;;;;;;;5017361;28;20390;-75
2023/01/31 05:13:37;;;;;;;15.40;3.08;;;;;;;;;;5043423;28;20087;-74
2023/01/31 05:16:07;;;;;;;11.88;3.10;;;;;;;;;;5019548;28;20042;-74
2023/01/31 05:18:34;;;;;;;14.00;2.50;;;;;;;;;;5010712;28;20042;-74
2023/01/31 05:21:00;;;;;;;5.45;2.55;;;;;;;;;;5029808;28;20037;-74
2023/01/31 05:23:26;;;;;;;12.27;2.53;;;;;;;;;;5018197;28;20129;-74
2023/01/31 05:25:51;;;;;;;8.07;2.60;;;;;;;;;;5017050;28;20113;-74
2023/01/31 05:28:17;;;;;;;8.77;2.22;;;;;;;;;;5028021;28;20052;-73
2023/01/31 05:30:42;;;;;;;15.07;2.78;;;;;;;;;;5016974;28;20049;-73
2023/01/31 05:33:08;;;;;;;8.05;2.38;;;;;;;;;;5029772;28;20496;-74
2023/01/31 05:35:34;;;;;;;9.43;2.38;;;;;;;;;;5023354;28;20172;-74
2023/01/31 05:37:59;;;;;;;9.63;2.15;;;;;;;;;;5015971;28;20052;-74
2023/01/31 05:40:25;;;;;;;12.65;2.58;;;;;;;;;;5019100;28;20079;-73
2023/01/31 05:42:58;;;;;;;8.30;1.77;;;;;;;;;;5024430;28;20037;-74
2023/01/31 05:45:24;;;;;;;14.35;2.50;;;;;;;;;;5021699;28;20092;-73
2023/01/31 05:47:49;;;;;;;12.65;2.30;;;;;;;;;;5023647;28;20469;-76
2023/01/31 05:50:16;;;;;;;6.20;1.60;;;;;;;;;;5021773;28;20033;-73
2023/01/31 05:52:41;;;;;;;6.50;1.73;;;;;;;;;;5028618;28;20094;-73
2023/01/31 05:55:07;;;;;;;8.02;1.70;;;;;;;;;;5017772;28;20064;-74
2023/01/31 05:57:32;;;;;;;7.97;1.75;;;;;;;;;;5021977;28;20496;-73
2023/01/31 05:59:59;;;;;;;10.07;1.90;;;;;;;;;;5018919;28;20045;-75
2023/01/31 06:02:24;;;;;;;8.23;1.80;;;;;;;;;;5018911;28;20025;-73
2023/01/31 06:04:49;;;;;;;10.18;2.10;;;;;;;;;;5015961;28;20038;-73
2023/01/31 06:07:15;;;;;;;10.07;2.33;;;;;;;;;;5021097;28;20043;-74
2023/01/31 06:09:40;;;;;;;8.07;1.75;;;;;;;;;;5020129;28;20038;-73
2023/01/31 06:12:11;;;;;;;10.27;1.98;;;;;;;;;;5021241;28;20045;-73
2023/01/31 06:14:36;;;;;;;7.75;1.63;;;;;;;;;;5021588;28;20065;-74
2023/01/31 06:17:02;;;;;;;9.85;2.13;;;;;;;;;;5024520;28;20449;-74
2023/01/31 06:19:28;;;;;;;10.20;2.85;;;;;;;;;;5023934;28;20045;-74
2023/01/31 06:21:53;;;;;;;7.65;2.05;;;;;;;;;;5018292;28;20037;-74
2023/01/31 06:24:19;;;;;;;7.00;2.05;;;;;;;;;;5014955;28;20050;-74
2023/01/31 06:26:44;;;;;;;7.55;1.80;;;;;;;;;;5018695;28;20037;-74
2023/01/31 06:29:10;;;;;;;4.97;1.63;;;;;;;;;;5024587;28;20478;-75
2023/01/31 06:31:35;;;;;;;9.25;1.92;;;;;;;;;;5021958;28;20068;-74
2023/01/31 06:34:00;;;;;;;4.82;1.40;;;;;;;;;;5016451;28;20072;-74
2023/01/31 06:36:26;;;;;;;7.10;2.20;;;;;;;;;;5025017;28;20037;-73
2023/01/31 06:38:52;;;;;;;14.82;2.25;;;;;;;;;;5023309;28;20030;-75
2023/01/31 06:41:18;;;;;;;7.30;2.28;;;;;;;;;;5027039;28;20033;-74
2023/01/31 06:43:43;;;;;;;10.10;2.20;;;;;;;;;;5027453;28;20477;-73
2023/01/31 06:46:09;;;;;;;8.10;2.17;;;;;;;;;;5026320;28;20037;-74
2023/01/31 06:48:34;;;;;;;8.95;1.80;;;;;;;;;;5019737;28;20033;-74
2023/01/31 06:51:00;;;;;;;10.52;2.33;;;;;;;;;;5029268;28;20037;-74
2023/01/31 06:53:25;;;;;;;10.52;2.15;;;;;;;;;;5027268;28;20048;-74
2023/01/31 06:55:51;;;;;;;10.70;1.90;;;;;;;;;;5026784;28;20041;-74
2023/01/31 06:58:17;;;;;;;10.77;2.10;;;;;;;;;;5027987;28;20042;-74
2023/01/31 07:00:42;;;;;;;9.23;2.00;;;;;;;;;;5018058;28;20029;-74
2023/01/31 07:03:07;;;;;;;6.68;1.70;;;;;;;;;;5025460;28;20037;-76
2023/01/31 07:05:33;;;;;;;10.57;2.58;;;;;;;;;;5029568;28;20045;-73
2023/01/31 07:07:58;;;;;;;5.00;1.70;;;;;;;;;;5027938;28;20029;-74
2023/01/31 07:10:24;;;;;;;11.05;1.83;;;;;;;;;;5014405;28;20125;-74
2023/01/31 07:12:49;;;;;;;5.72;1.48;;;;;;;;;;5013865;28;20540;-73
2023/01/31 07:15:15;;;;;;;9.63;2.00;;;;;;;;;;5025398;28;20466;-74
2023/01/31 07:17:40;;;;;;;7.57;1.52;;;;;;;;;;5014881;28;20129;-74
2023/01/31 07:20:08;;;;;;;12.52;1.98;;;;;;;;;;5016764;28;20042;-74
2023/01/31 07:22:33;;;;;;;9.43;1.80;;;;;;;;;;5015808;28;20112;-74
2023/01/31 07:24:59;;;;;;;9.45;2.13;;;;;;;;;;5015603;28;20128;-74
2023/01/31 07:27:24;;;;;;;13.55;1.73;;;;;;;;;;5020595;28;20084;-74
2023/01/31 07:29:50;;;;;;;7.63;1.75;;;;;;;;;;5027081;28;20033;-74
2023/01/31 07:32:15;;;;;;;16.60;2.33;;;;;;;;;;5016525;28;20046;-73
2023/01/31 07:34:40;;;;;;;11.10;1.70;;;;;;;;;;5020657;28;20034;-74
2023/01/31 07:37:06;;;;;;;5.45;1.63;;;;;;;;;;5023247;28;20034;-73
2023/01/31 07:39:31;;;;;;;5.78;1.60;;;;;;;;;;5019995;28;20049;-73
2023/01/31 07:41:57;;;;;;;7.88;1.58;;;;;;;;;;5018082;28;20030;-74
2023/01/31 07:44:22;;;;;;;5.82;1.50;;;;;;;;;;5017185;28;20114;-74
2023/01/31 07:46:47;;;;;;;12.70;2.53;;;;;;;;;;5015953;28;20033;-74
2023/01/31 07:49:13;;;;;;;5.15;1.75;;;;;;;;;;5017724;28;20116;-75
2023/01/31 07:51:38;;;;;;;6.53;2.08;;;;;;;;;;5018432;28;20060;-74
2023/01/31 07:54:05;;;;;;;8.13;2.30;;;;;;;;;;5016491;28;20030;-74
2023/01/31 07:56:30;;;;;;;11.07;2.10;;;;;;;;;;5017249;28;20041;-74
2023/01/31 07:58:58;;;;;;;13.23;1.92;;;;;;;;;;5017598;28;20509;-75
2023/01/31 08:04:11;;;;;;;8.02;1.65;;;;;;;;;;5014605;28;20248;-74
2023/01/31 08:06:38;;;;;;;7.85;1.88;;;;;;;;;;5014650;28;20041;-74
2023/01/31 08:09:03;;;;;;;9.10;1.90;;;;;;;;;;5016997;28;20038;-74
2023/01/31 08:11:29;;;;;;;9.98;1.50;;;;;;;;;;5015922;28;20080;-74
2023/01/31 08:13:54;;;;;;;7.32;2.30;;;;;;;;;;5014326;28;20402;-75
2023/01/31 08:16:20;;;;;;;5.03;1.75;;;;;;;;;;5014637;28;20084;-74
2023/01/31 08:18:46;;;;;;;5.43;1.60;;;;;;;;;;5015101;28;20029;-74
2023/01/31 08:21:13;;;;;;;7.28;1.35;;;;;;;;;;5015767;28;20091;-75
2023/01/31 08:23:39;;;;;;;4.78;1.30;;;;;;;;;;5020197;28;20045;-74
2023/01/31 08:26:18;;;;;;;5.72;2.03;;;;;;;;;;5026205;28;20175;-75
2023/01/31 08:28:44;;;;;;;4.15;1.23;;;;;;;;;;5029324;28;20474;-74
2023/01/31 08:31:22;;;;;;;6.55;1.80;;;;;;;;;;5027502;28;20037;-74
2023/01/31 08:33:50;;;;;;;6.30;1.27;;;;;;;;;;5022596;28;20469;-74
2023/01/31 08:36:18;;;;;;;5.22;1.65;;;;;;;;;;5019921;28;20037;-74
2023/01/31 08:38:43;;;;;;;6.60;3.13;;;;;;;;;;5027954;28;20386;-74
2023/01/31 08:41:10;;;;;;;3.53;1.40;;;;;;;;;;5022730;28;20045;-73
2023/01/31 08:43:36;;;;;;;6.55;2.10;;;;;;;;;;5017934;28;20038;-73
2023/01/31 08:46:03;;;;;;;2.88;1.17;;;;;;;;;;5022939;28;20040;-76
2023/01/31 08:48:31;;;;;;;4.60;1.52;;;;;;;;;;5024037;28;20113;-73
2023/01/31 08:51:00;;;;;;;5.60;1.35;;;;;;;;;;5015841;28;20033;-74
2023/01/31 08:53:25;;;;;;;4.82;1.15;;;;;;;;;;5017564;28;20033;-73
2023/01/31 08:55:51;;;;;;;6.35;1.65;;;;;;;;;;5022835;28;20124;-74
2023/01/31 08:58:16;;;;;;;8.15;2.05;;;;;;;;;;5018444;28;20034;-74
2023/01/31 09:00:41;;;;;;;11.63;3.03;;;;;;;;;;5022401;28;20385;-74
2023/01/31 09:03:15;;;;;;;10.60;3.25;;;;;;;;;;5015540;28;20049;-74
2023/01/31 09:05:40;;;;;;;;;;;;;;;;;;4994438;28;20188;-77
2023/01/31 09:08:06;;;;;;;11.18;3.97;;;;;;;;;;5022386;28;20422;-75
2023/01/31 09:10:31;;;;;;;9.52;3.15;;;;;;;;;;5027222;28;20041;-74
2023/01/31 09:12:59;;;;;;;12.38;3.17;;;;;;;;;;5018510;28;20034;-74
2023/01/31 09:15:25;;;;;;;10.15;2.88;;;;;;;;;;5021379;28;20025;-74
2023/01/31 09:17:51;;;;;;;15.45;3.13;;;;;;;;;;5013912;28;20042;-74
2023/01/31 09:20:16;;;;;;;8.70;3.15;;;;;;;;;;5026758;28;20488;-74
2023/01/31 09:22:42;;;;;;;5.28;2.20;;;;;;;;;;5017094;28;20038;-74
2023/01/31 09:25:07;;;;;;;11.10;2.28;;;;;;;;;;5016860;28;20466;-74
2023/01/31 09:27:34;;;;;;;10.65;2.55;;;;;;;;;;5014673;28;20076;-74
2023/01/31 09:29:59;;;;;;;11.50;2.88;;;;;;;;;;5012817;28;20073;-77
2023/01/31 09:32:25;;;;;;;11.85;3.20;;;;;;;;;;5025011;28;20448;-74
2023/01/31 09:34:50;;;;;;;11.25;3.53;;;;;;;;;;5021243;28;20026;-74
2023/01/31 09:37:16;;;;;;;11.10;3.00;;;;;;;;;;5026404;28;20048;-74
2023/01/31 09:39:42;;;;;;;6.88;2.50;;;;;;;;;;5030099;28;20041;-74
2023/01/31 09:42:20;;;;;;;9.98;2.53;;;;;;;;;;5027270;28;20026;-74
2023/01/31 09:44:53;;;;;;;6.03;2.40;;;;;;;;;;5029824;28;20037;-74
2023/01/31 09:47:35;;;;;;;6.57;2.75;;;;;;;;;;5025785;28;20044;-74
2023/01/31 09:50:20;;;;;;;6.65;2.58;;;;;;;;;;5026504;28;20109;-74
2023/01/31 09:52:47;;;;;;;7.72;3.20;;;;;;;;;;5027476;28;20052;-74
2023/01/31 09:55:17;;;;;;;7.03;2.40;;;;;;;;;;5024414;28;20378;-74
2023/01/31 09:57:58;;;;;;;10.68;3.03;;;;;;;;;;5021494;28;20121;-74
2023/01/31 10:00:45;;;;;;;7.63;2.10;;;;;;;;;;5019611;28;20118;-74
2023/01/31 10:03:23;;;;;;;3.88;1.73;;;;;;;;;;5022811;28;20068;-74
2023/01/31 10:05:55;;;;;;;3.60;1.40;;;;;;;;;;5003189;28;20050;-74
2023/01/31 10:08:41;;;;;;;2.70;1.15;;;;;;;;;;5019411;28;20497;-74
2023/01/31 10:11:13;;;;;;;2.92;0.90;;;;;;;;;;5024858;28;20075;-74
2023/01/31 10:13:45;;;;;;;3.88;1.15;;;;;;;;;;5022163;28;20034;-74
2023/01/31 10:16:27;;;;;;;4.57;1.02;;;;;;;;;;4989618;28;20893;-74
2023/01/31 10:19:01;;;;;;;1.35;0.60;;;;;;;;;;5015082;28;20100;-78
2023/01/31 10:21:42;;;;;;;0.95;0.50;;;;;;;;;;5017013;28;20034;-74
2023/01/31 10:24:39;;;;;;;4.60;1.02;;;;;;;;;;5010369;28;20037;-74
2023/01/31 10:27:15;;;;;;;4.38;0.93;;;;;;;;;;5006457;28;20511;-75
2023/01/31 10:29:50;;;;;;;3.67;1.30;;;;;;;;;;5016703;28;20065;-74
2023/01/31 10:32:22;;;;;;;2.00;0.77;;;;;;;;;;5018035;28;20033;-73
2023/01/31 10:34:56;;;;;;;4.93;0.70;;;;;;;;;;5016464;28;20038;-73
2023/01/31 10:37:36;;;;;;;1.95;0.50;;;;;;;;;;5036863;28;20136;-74
2023/01/31 10:40:13;;;;;;;2.40;0.63;;;;;;;;;;4999559;28;20088;-74
2023/01/31 10:42:40;;;;;;;2.42;0.60;;;;;;;;;;5023374;28;20038;-73
2023/01/31 10:45:29;;;;;;;1.23;0.60;;;;;;;;;;5002335;28;20534;-74
2023/01/31 10:48:03;;;;;;;6.40;0.80;;;;;;;;;;5011069;28;20045;-73
2023/01/31 10:50:59;;;;;;;0.90;0.45;;;;;;;;;;5012138;28;20034;-75
2023/01/31 10:53:34;;;;;;;5.65;1.10;;;;;;;;;;5011572;28;20116;-73
2023/01/31 10:56:08;;;;;;;4.03;1.10;;;;;;;;;;5025504;28;20045;-74
2023/01/31 10:58:34;;;;;;;7.10;0.82;;;;;;;;;;5023305;28;20038;-73
2023/01/31 11:01:00;;;;;;;10.80;1.23;;;;;;;;;;5021684;28;20035;-73
2023/01/31 11:03:26;;;;;;;3.10;0.95;;;;;;;;;;5009976;28;20069;-73
2023/01/31 11:05:54;;;;;;;7.10;1.48;;;;;;;;;;5015589;28;20033;-73
2023/01/31 11:08:35;;;;;;;8.57;1.67;;;;;;;;;;5019700;28;20049;-74
2023/01/31 11:11:07;;;;;;;6.05;1.17;;;;;;;;;;5025629;28;20112;-74
2023/01/31 11:13:32;;;;;;;12.05;1.60;;;;;;;;;;5022814;28;20722;-75
2023/01/31 11:16:00;;;;;;;6.00;1.55;;;;;;;;;;5009779;28;20045;-74
2023/01/31 11:18:29;;;;;;;7.57;1.80;;;;;;;;;;5021445;28;20038;-74
2023/01/31 11:20:55;;;;;;;7.18;1.17;;;;;;;;;;5021226;28;20040;-74
2023/01/31 11:23:23;;;;;;;8.43;1.42;;;;;;;;;;5026865;28;20030;-74
2023/01/31 11:25:49;;;;;;;12.45;1.63;;;;;;;;;;5026197;28;20044;-73
2023/01/31 11:28:33;;;;;;;15.48;2.08;;;;;;;;;;5028825;28;20108;-73
2023/01/31 11:30:58;;;;;;;8.52;1.75;;;;;;;;;;5010852;28;20049;-73
2023/01/31 11:33:40;;;;;;;16.25;1.60;;;;;;;;;;5022528;28;20040;-75
2023/01/31 11:36:11;;;;;;;12.45;1.83;;;;;;;;;;5028248;28;20465;-74
2023/01/31 11:38:36;;;;;;;7.65;1.40;;;;;;;;;;5012401;28;20033;-77
2023/01/31 11:41:24;;;;;;;10.93;1.83;;;;;;;;;;5006154;28;20592;-74
2023/01/31 11:43:50;;;;;;;16.60;2.38;;;;;;;;;;5017117;28;20042;-74
2023/01/31 11:46:15;;;;;;;17.25;2.20;;;;;;;;;;5016762;28;20499;-74
2023/01/31 11:48:42;;;;;;;16.92;1.98;;;;;;;;;;5012928;28;20038;-74
2023/01/31 11:51:09;;;;;;;11.30;2.17;;;;;;;;;;5012787;28;20379;-74
2023/01/31 11:53:38;;;;;;;20.02;2.33;;;;;;;;;;5017927;28;20120;-74
2023/01/31 11:56:20;;;;;;;18.40;2.75;;;;;;;;;;5019161;28;20026;-74
2023/01/31 11:58:49;;;;;;;12.73;2.00;;;;;;;;;;5017697;28;20049;-74
2023/01/31 12:01:17;;;;;;;11.75;2.03;;;;;;;;;;5017814;28;20037;-74
2023/01/31 12:03:52;;;;;;;20.08;3.00;;;;;;;;;;5025468;28;20038;-74
2023/01/31 12:06:35;;;;;;;11.52;1.98;;;;;;;;;;5018200;28;20091;-74
2023/01/31 12:09:16;;;;;;;18.30;2.45;;;;;;;;;;5028351;28;20053;-75
2023/01/31 12:11:52;;;;;;;12.25;2.00;;;;;;;;;;5010874;28;20034;-74
2023/01/31 12:14:18;;;;;;;11.02;1.88;;;;;;;;;;5020839;28;20030;-74
2023/01/31 12:16:45;;;;;;;12.82;2.15;;;;;;;;;;5021783;28;20052;-74
2023/01/31 12:19:10;;;;;;;18.70;2.30;;;;;;;;;;5016267;28;20052;-74
2023/01/31 12:21:54;;;;;;;14.55;1.92;;;;;;;;;;5017166;28;20386;-73
2023/01/31 12:24:28;;;;;;;19.05;2.10;;;;;;;;;;5016806;28;20509;-74
2023/01/31 12:26:55;;;;;;;13.98;2.28;;;;;;;;;;4988093;28;20037;-74
2023/01/31 12:29:48;;;;;;;11.15;1.77;;;;;;;;;;5014289;28;20409;-74
2023/01/31 12:32:27;;;;;;;16.50;2.65;;;;;;;;;;5016449;28;20088;-75
2023/01/31 12:35:14;;;;;;;15.30;2.15;;;;;;;;;;5012357;28;20061;-76
2023/01/31 12:38:22;;;;;;;16.73;2.45;;;;;;;;;;5010690;28;20038;-74
2023/01/31 12:41:06;;;;;;;12.45;2.33;;;;;;;;;;5014112;28;20084;-74
2023/01/31 12:43:31;;;;;;;18.63;2.15;;;;;;;;;;5025504;28;20555;-73
2023/01/31 12:46:08;;;;;;;11.88;2.22;;;;;;;;;;5009616;28;20033;-75
2023/01/31 12:48:42;;;;;;;10.80;1.90;;;;;;;;;;5011871;28;20033;-74
2023/01/31 12:51:14;;;;;;;12.93;1.92;;;;;;;;;;5012050;28;20091;-75
2023/01/31 12:54:12;;;;;;;9.20;1.85;;;;;;;;;;5009519;28;20041;-74
2023/01/31 12:56:40;;;;;;;12.25;2.10;;;;;;;;;;5007955;28;20044;-74
2023/01/31 12:59:31;;;;;;;16.50;1.95;;;;;;;;;;5014107;28;20117;-74
2023/01/31 13:02:02;;;;;;;13.95;2.13;;;;;;;;;;5016373;28;20052;-74
2023/01/31 13:05:01;;;;;;;8.90;1.95;;;;;;;;;;5013606;28;20038;-74
2023/01/31 13:07:31;;;;;;;12.98;2.30;;;;;;;;;;5008949;28;20084;-74
2023/01/31 13:09:59;;;;;;;12.73;1.95;;;;;;;;;;5009731;28;20040;-75
2023/01/31 13:12:27;;;;;;;11.90;1.92;;;;;;;;;;5009417;28;20038;-74
2023/01/31 13:15:32;;;;;;;11.77;1.88;;;;;;;;;;5008511;28;20029;-73
2023/01/31 13:18:02;;;;;;;13.90;2.13;;;;;;;;;;5001293;28;20467;-73
2023/01/31 13:20:43;;;;;;;11.95;2.97;;;;;;;;;;5011562;28;20041;-74
2023/01/31 13:23:33;;;;;;;14.68;1.75;;;;;;;;;;5011770;28;20072;-74
2023/01/31 13:26:07;;;;;;;14.55;2.05;;;;;;;;;;5016045;28;20053;-74
2023/01/31 13:28:44;;;;;;;13.27;2.00;;;;;;;;;;5024844;28;20389;-74
2023/01/31 13:31:22;;;;;;;13.98;2.20;;;;;;;;;;5008278;28;20293;-74
2023/01/31 13:34:09;;;;;;;11.48;1.75;;;;;;;;;;5001593;28;20120;-74
2023/01/31 13:36:38;;;;;;;13.95;2.03;;;;;;;;;;5023191;28;20068;-73
2023/01/31 13:39:16;;;;;;;7.40;1.77;;;;;;;;;;5019221;28;20044;-74
2023/01/31 13:41:42;;;;;;;8.23;1.67;;;;;;;;;;5023502;28;20503;-74
2023/01/31 13:44:11;;;;;;;16.50;2.28;;;;;;;;;;5025758;28;20033;-74
2023/01/31 13:47:01;;;;;;;12.60;2.42;;;;;;;;;;5019625;28;20034;-73
2023/01/31 13:49:32;;;;;;;12.27;2.85;;;;;;;;;;4987513;28;20056;-74
2023/01/31 13:52:08;;;;;;;23.25;3.60;;;;;;;;;;5014219;28;20140;-74
2023/01/31 13:54:42;;;;;;;7.50;1.63;;;;;;;;;;5017656;28;20456;-73
2023/01/31 13:57:22;;;;;;;14.23;1.67;;;;;;;;;;5013286;28;20030;-74
2023/01/31 13:59:52;;;;;;;8.82;1.73;;;;;;;;;;5020420;28;20050;-75
2023/01/31 14:02:18;;;;;;;11.25;1.80;;;;;;;;;;5020639;28;20030;-74
2023/01/31 14:04:46;;;;;;;19.10;2.70;;;;;;;;;;5011836;28;20069;-75
2023/01/31 14:07:11;;;;;;;15.23;2.45;;;;;;;;;;5018891;28;20045;-75
2023/01/31 14:09:45;;;;;;;12.52;1.95;;;;;;;;;;5021780;28;20388;-74
2023/01/31 14:12:14;;;;;;;14.48;2.20;;;;;;;;;;5007916;28;20042;-74
2023/01/31 14:14:46;;;;;;;12.20;1.90;;;;;;;;;;5014425;28;20041;-74
2023/01/31 14:17:37;;;;;;;15.32;1.92;;;;;;;;;;5012932;28;20073;-74
2023/01/31 14:20:23;;;;;;;14.60;3.22;;;;;;;;;;5011315;28;20053;-74
2023/01/31 14:23:31;;;;;;;14.90;2.25;;;;;;;;;;5006922;28;20030;-74
2023/01/31 14:25:56;;;;;;;12.05;2.15;;;;;;;;;;5001509;28;20062;-74
2023/01/31 14:28:22;;;;;;;9.65;1.70;;;;;;;;;;5010545;28;20375;-74
2023/01/31 14:30:47;;;;;;;14.25;2.00;;;;;;;;;;5014626;28;20460;-73
2023/01/31 14:33:13;;;;;;;17.63;2.85;;;;;;;;;;4999208;28;20034;-74
2023/01/31 14:36:14;;;;;;;13.82;1.90;;;;;;;;;;5011629;28;20405;-77
2023/01/31 14:39:01;;;;;;;10.27;1.85;;;;;;;;;;5016008;28;20033;-74
2023/01/31 14:41:40;;;;;;;10.93;2.40;;;;;;;;;;5012488;28;20068;-74
2023/01/31 14:44:24;;;;;;;17.92;1.98;;;;;;;;;;4992839;28;20138;-74
2023/01/31 14:47:13;;;;;;;11.77;2.25;;;;;;;;;;5005168;28;20080;-74
2023/01/31 14:49:52;;;;;;;8.90;1.65;;;;;;;;;;4976446;28;20062;-74
2023/01/31 14:52:39;;;;;;;18.33;2.40;;;;;;;;;;5016477;28;20049;-74
2023/01/31 14:55:26;;;;;;;12.13;2.58;;;;;;;;;;5013624;28;20037;-74
2023/01/31 14:57:57;;;;;;;5.90;1.52;;;;;;;;;;5024223;28;20049;-73
2023/01/31 15:00:35;;;;;;;8.55;2.22;;;;;;;;;;5020926;28;20041;-75